Aviation Digital Data Service (ADDS)

Output produced by METARs form (2315 UTC 18 August 2019)
found at http://www.aviationweather.gov/metar/data/
 
METAR text: WMKI 182300Z 03004KT 9000 FEW010 SCT140 BKN280 24/23 Q1011
Conditions at: WMKI (IPOH , MY) observed 2300 UTC 18 August 2019
Temperature: 24.0°C (75°F)
Dewpoint: 23.0°C (73°F) [RH = 94%]
Pressure (altimeter): 29.85 inches Hg (1011.0 mb)
Winds: from the NNE (30 degrees) at 5 MPH (4 knots; 2.1 m/s)
Visibility: 6 miles ( 9 km)
Ceiling: 28000 feet AGL
Clouds: few clouds at 1000 feet AGL
scattered clouds at 14000 feet AGL
broken clouds at 28000 feet AGL
Weather: no significant weather observed at this time

METAR text: WMKI 182200Z 02006KT 8000 FEW010 SCT140 BKN280 24/23 Q1011
Conditions at: WMKI (IPOH , MY) observed 2200 UTC 18 August 2019
Temperature: 24.0°C (75°F)
Dewpoint: 23.0°C (73°F) [RH = 94%]
Pressure (altimeter): 29.85 inches Hg (1011.0 mb)
Winds: from the NNE (20 degrees) at 7 MPH (6 knots; 3.1 m/s)
Visibility: 5 miles ( 8 km)
Ceiling: 28000 feet AGL
Clouds: few clouds at 1000 feet AGL
scattered clouds at 14000 feet AGL
broken clouds at 28000 feet AGL
Weather: no significant weather observed at this time

METAR text: WMKI 182100Z 03008KT 8000 FEW010 SCT140 BKN280 25/23 Q1011
Conditions at: WMKI (IPOH , MY) observed 2100 UTC 18 August 2019
Temperature: 25.0°C (77°F)
Dewpoint: 23.0°C (73°F) [RH = 89%]
Pressure (altimeter): 29.85 inches Hg (1011.0 mb)
Winds: from the NNE (30 degrees) at 9 MPH (8 knots; 4.1 m/s)
Visibility: 5 miles ( 8 km)
Ceiling: 28000 feet AGL
Clouds: few clouds at 1000 feet AGL
scattered clouds at 14000 feet AGL
broken clouds at 28000 feet AGL
Weather: no significant weather observed at this time

METAR text: WMKI 182000Z 02005KT 8000 FEW010 SCT140 BKN280 25/23 Q1011
Conditions at: WMKI (IPOH , MY) observed 2000 UTC 18 August 2019
Temperature: 25.0°C (77°F)
Dewpoint: 23.0°C (73°F) [RH = 89%]
Pressure (altimeter): 29.85 inches Hg (1011.0 mb)
Winds: from the NNE (20 degrees) at 6 MPH (5 knots; 2.6 m/s)
Visibility: 5 miles ( 8 km)
Ceiling: 28000 feet AGL
Clouds: few clouds at 1000 feet AGL
scattered clouds at 14000 feet AGL
broken clouds at 28000 feet AGL
Weather: no significant weather observed at this time

METAR text: WMKI 181900Z VRB02KT 8000 FEW007 SCT030 BKN280 25/24 Q1012
Conditions at: WMKI (IPOH , MY) observed 1900 UTC 18 August 2019
Temperature: 25.0°C (77°F)
Dewpoint: 24.0°C (75°F) [RH = 94%]
Pressure (altimeter): 29.88 inches Hg (1012.0 mb)
Winds: variable direction winds at 2 MPH (2 knots; 1.0 m/s)
Visibility: 5 miles ( 8 km)
Ceiling: 28000 feet AGL
Clouds: few clouds at 700 feet AGL
scattered clouds at 3000 feet AGL
broken clouds at 28000 feet AGL
Weather: no significant weather observed at this time

METAR text: WMKI 181800Z 04004KT 010V100 8000 FEW007 SCT030 BKN280 25/23 Q1012 RERA
Conditions at: WMKI (IPOH , MY) observed 1800 UTC 18 August 2019
Temperature: 25.0°C (77°F)
Dewpoint: 23.0°C (73°F) [RH = 89%]
Pressure (altimeter): 29.88 inches Hg (1012.0 mb)
Winds: from the NE (40 degrees) at 5 MPH (4 knots; 2.1 m/s)
Visibility: 5 miles ( 8 km)
Ceiling: 28000 feet AGL
Clouds: few clouds at 700 feet AGL
scattered clouds at 3000 feet AGL
broken clouds at 28000 feet AGL
Weather: no significant weather observed at this time

METAR text: WMKI 181700Z VRB03KT 9000 FEW030 SCT140 BKN280 25/23 Q1013
Conditions at: WMKI (IPOH , MY) observed 1700 UTC 18 August 2019
Temperature: 25.0°C (77°F)
Dewpoint: 23.0°C (73°F) [RH = 89%]
Pressure (altimeter): 29.91 inches Hg (1013.0 mb)
Winds: variable direction winds at 3 MPH (3 knots; 1.5 m/s)
Visibility: 6 miles ( 9 km)
Ceiling: 28000 feet AGL
Clouds: few clouds at 3000 feet AGL
scattered clouds at 14000 feet AGL
broken clouds at 28000 feet AGL
Weather: no significant weather observed at this time

METAR text: WMKI 181600Z VRB02KT 9000 FEW030 SCT140 BKN280 25/23 Q1013
Conditions at: WMKI (IPOH , MY) observed 1600 UTC 18 August 2019
Temperature: 25.0°C (77°F)
Dewpoint: 23.0°C (73°F) [RH = 89%]
Pressure (altimeter): 29.91 inches Hg (1013.0 mb)
Winds: variable direction winds at 2 MPH (2 knots; 1.0 m/s)
Visibility: 6 miles ( 9 km)
Ceiling: 28000 feet AGL
Clouds: few clouds at 3000 feet AGL
scattered clouds at 14000 feet AGL
broken clouds at 28000 feet AGL
Weather: no significant weather observed at this time

METAR text: WMKI 181500Z 08003KT 030V120 9000 FEW030 SCT140 BKN280 25/23 Q1012
Conditions at: WMKI (IPOH , MY) observed 1500 UTC 18 August 2019
Temperature: 25.0°C (77°F)
Dewpoint: 23.0°C (73°F) [RH = 89%]
Pressure (altimeter): 29.88 inches Hg (1012.0 mb)
Winds: from the E (80 degrees) at 3 MPH (3 knots; 1.5 m/s)
Visibility: 6 miles ( 9 km)
Ceiling: 28000 feet AGL
Clouds: few clouds at 3000 feet AGL
scattered clouds at 14000 feet AGL
broken clouds at 28000 feet AGL
Weather: no significant weather observed at this time

METAR text: WMKI 181400Z 05004KT 010V080 9000 FEW030 SCT140 BKN270 25/22 Q1012
Conditions at: WMKI (IPOH , MY) observed 1400 UTC 18 August 2019
Temperature: 25.0°C (77°F)
Dewpoint: 22.0°C (72°F) [RH = 83%]
Pressure (altimeter): 29.88 inches Hg (1012.0 mb)
Winds: from the NE (50 degrees) at 5 MPH (4 knots; 2.1 m/s)
Visibility: 6 miles ( 9 km)
Ceiling: 27000 feet AGL
Clouds: few clouds at 3000 feet AGL
scattered clouds at 14000 feet AGL
broken clouds at 27000 feet AGL
Weather: no significant weather observed at this time

METAR text: WMKI 181300Z VRB02KT 8000 FEW030 SCT140 BKN270 25/22 Q1011
Conditions at: WMKI (IPOH , MY) observed 1300 UTC 18 August 2019
Temperature: 25.0°C (77°F)
Dewpoint: 22.0°C (72°F) [RH = 83%]
Pressure (altimeter): 29.85 inches Hg (1011.0 mb)
Winds: variable direction winds at 2 MPH (2 knots; 1.0 m/s)
Visibility: 5 miles ( 8 km)
Ceiling: 27000 feet AGL
Clouds: few clouds at 3000 feet AGL
scattered clouds at 14000 feet AGL
broken clouds at 27000 feet AGL
Weather: no significant weather observed at this time

METAR text: WMKI 181200Z VRB02KT 7000 FEW030 SCT140 BKN270 25/22 Q1011
Conditions at: WMKI (IPOH , MY) observed 1200 UTC 18 August 2019
Temperature: 25.0°C (77°F)
Dewpoint: 22.0°C (72°F) [RH = 83%]
Pressure (altimeter): 29.85 inches Hg (1011.0 mb)
Winds: variable direction winds at 2 MPH (2 knots; 1.0 m/s)
Visibility: 4 miles ( 7 km)
Ceiling: 27000 feet AGL
Clouds: few clouds at 3000 feet AGL
scattered clouds at 14000 feet AGL
broken clouds at 27000 feet AGL
Weather: no significant weather observed at this time

METAR text: WMKI 181100Z VRB03KT 8000 SCT025 SCT140 BKN270 26/22 Q1010
Conditions at: WMKI (IPOH , MY) observed 1100 UTC 18 August 2019
Temperature: 26.0°C (79°F)
Dewpoint: 22.0°C (72°F) [RH = 79%]
Pressure (altimeter): 29.82 inches Hg (1010.0 mb)
Winds: variable direction winds at 3 MPH (3 knots; 1.5 m/s)
Visibility: 5 miles ( 8 km)
Ceiling: 27000 feet AGL
Clouds: scattered clouds at 2500 feet AGL
scattered clouds at 14000 feet AGL
broken clouds at 27000 feet AGL
Weather: no significant weather observed at this time

METAR text: WMKI 181000Z VRB02KT 8000 SCT020 BKN140 27/23 Q1010
Conditions at: WMKI (IPOH , MY) observed 1000 UTC 18 August 2019
Temperature: 27.0°C (81°F)
Dewpoint: 23.0°C (73°F) [RH = 79%]
Pressure (altimeter): 29.82 inches Hg (1010.0 mb)
Winds: variable direction winds at 2 MPH (2 knots; 1.0 m/s)
Visibility: 5 miles ( 8 km)
Ceiling: 14000 feet AGL
Clouds: scattered clouds at 2000 feet AGL
broken clouds at 14000 feet AGL
Weather: no significant weather observed at this time

METAR text: WMKI 180900Z 29005KT 250V320 7000 SCT020 BKN140 27/23 Q1010 RETSRA
Conditions at: WMKI (IPOH , MY) observed 0900 UTC 18 August 2019
Temperature: 27.0°C (81°F)
Dewpoint: 23.0°C (73°F) [RH = 79%]
Pressure (altimeter): 29.82 inches Hg (1010.0 mb)
Winds: from the WNW (290 degrees) at 6 MPH (5 knots; 2.6 m/s)
Visibility: 4 miles ( 7 km)
Ceiling: 14000 feet AGL
Clouds: scattered clouds at 2000 feet AGL
broken clouds at 14000 feet AGL
Weather: no significant weather observed at this time

METAR text: WMKI 180800Z 03016KT 010V070 6000 -TSRA FEW017CB SCT020 BKN140 26/24 Q1009
Conditions at: WMKI (IPOH , MY) observed 0800 UTC 18 August 2019
Temperature: 26.0°C (79°F)
Dewpoint: 24.0°C (75°F) [RH = 89%]
Pressure (altimeter): 29.79 inches Hg (1009.0 mb)
Winds: from the NNE (30 degrees) at 18 MPH (16 knots; 8.2 m/s)
Visibility: 4 miles ( 6 km)
Ceiling: 14000 feet AGL
Clouds: few clouds at 1700 feet AGL
scattered clouds at 2000 feet AGL
broken clouds at 14000 feet AGL
Weather: -TSRA  (light rain associated with thunderstorm(s))

METAR text: WMKI 180700Z 23006KT 160V260 9999 FEW017CB SCT020 BKN280 34/23 Q1008
Conditions at: WMKI (IPOH , MY) observed 0700 UTC 18 August 2019
Temperature: 34.0°C (93°F)
Dewpoint: 23.0°C (73°F) [RH = 53%]
Pressure (altimeter): 29.76 inches Hg (1008.0 mb)
Winds: from the SW (230 degrees) at 7 MPH (6 knots; 3.1 m/s)
Visibility: 6 or more miles (10+ km)
Ceiling: 28000 feet AGL
Clouds: few clouds at 1700 feet AGL
scattered clouds at 2000 feet AGL
broken clouds at 28000 feet AGL
Weather: no significant weather observed at this time

METAR text: WMKI 180600Z 23008KT 170V260 9999 FEW017CB BKN280 34/23 Q1010
Conditions at: WMKI (IPOH , MY) observed 0600 UTC 18 August 2019
Temperature: 34.0°C (93°F)
Dewpoint: 23.0°C (73°F) [RH = 53%]
Pressure (altimeter): 29.82 inches Hg (1010.0 mb)
Winds: from the SW (230 degrees) at 9 MPH (8 knots; 4.1 m/s)
Visibility: 6 or more miles (10+ km)
Ceiling: 28000 feet AGL
Clouds: few clouds at 1700 feet AGL
broken clouds at 28000 feet AGL
Weather: no significant weather observed at this time

METAR text: WMKI 180500Z 27004KT 200V330 9999 FEW020 BKN280 34/24 Q1010
Conditions at: WMKI (IPOH , MY) observed 0500 UTC 18 August 2019
Temperature: 34.0°C (93°F)
Dewpoint: 24.0°C (75°F) [RH = 56%]
Pressure (altimeter): 29.82 inches Hg (1010.0 mb)
Winds: from the W (270 degrees) at 5 MPH (4 knots; 2.1 m/s)
Visibility: 6 or more miles (10+ km)
Ceiling: 28000 feet AGL
Clouds: few clouds at 2000 feet AGL
broken clouds at 28000 feet AGL
Weather: no significant weather observed at this time

METAR text: WMKI 180400Z VRB03KT 9999 FEW020 BKN280 32/24 Q1011
Conditions at: WMKI (IPOH , MY) observed 0400 UTC 18 August 2019
Temperature: 32.0°C (90°F)
Dewpoint: 24.0°C (75°F) [RH = 63%]
Pressure (altimeter): 29.85 inches Hg (1011.0 mb)
Winds: variable direction winds at 3 MPH (3 knots; 1.5 m/s)
Visibility: 6 or more miles (10+ km)
Ceiling: 28000 feet AGL
Clouds: few clouds at 2000 feet AGL
broken clouds at 28000 feet AGL
Weather: no significant weather observed at this time

METAR text: WMKI 180300Z VRB04KT 9999 FEW020 BKN280 31/24 Q1012
Conditions at: WMKI (IPOH , MY) observed 0300 UTC 18 August 2019
Temperature: 31.0°C (88°F)
Dewpoint: 24.0°C (75°F) [RH = 66%]
Pressure (altimeter): 29.88 inches Hg (1012.0 mb)
Winds: variable direction winds at 5 MPH (4 knots; 2.1 m/s)
Visibility: 6 or more miles (10+ km)
Ceiling: 28000 feet AGL
Clouds: few clouds at 2000 feet AGL
broken clouds at 28000 feet AGL
Weather: no significant weather observed at this time

METAR text: WMKI 180200Z 01005KT 340V050 9000 FEW020 BKN280 29/24 Q1012
Conditions at: WMKI (IPOH , MY) observed 0200 UTC 18 August 2019
Temperature: 29.0°C (84°F)
Dewpoint: 24.0°C (75°F) [RH = 74%]
Pressure (altimeter): 29.88 inches Hg (1012.0 mb)
Winds: from the N (10 degrees) at 6 MPH (5 knots; 2.6 m/s)
Visibility: 6 miles ( 9 km)
Ceiling: 28000 feet AGL
Clouds: few clouds at 2000 feet AGL
broken clouds at 28000 feet AGL
Weather: no significant weather observed at this time

METAR text: WMKI 180100Z 04008KT 9000 FEW030 SCT140 BKN280 27/23 Q1012
Conditions at: WMKI (IPOH , MY) observed 0100 UTC 18 August 2019
Temperature: 27.0°C (81°F)
Dewpoint: 23.0°C (73°F) [RH = 79%]
Pressure (altimeter): 29.88 inches Hg (1012.0 mb)
Winds: from the NE (40 degrees) at 9 MPH (8 knots; 4.1 m/s)
Visibility: 6 miles ( 9 km)
Ceiling: 28000 feet AGL
Clouds: few clouds at 3000 feet AGL
scattered clouds at 14000 feet AGL
broken clouds at 28000 feet AGL
Weather: no significant weather observed at this time

METAR text: WMKI 180000Z 03005KT 9999 FEW030 SCT140 BKN280 26/23 Q1011
Conditions at: WMKI (IPOH , MY) observed 0000 UTC 18 August 2019
Temperature: 26.0°C (79°F)
Dewpoint: 23.0°C (73°F) [RH = 84%]
Pressure (altimeter): 29.85 inches Hg (1011.0 mb)
Winds: from the NNE (30 degrees) at 6 MPH (5 knots; 2.6 m/s)
Visibility: 6 or more miles (10+ km)
Ceiling: 28000 feet AGL
Clouds: few clouds at 3000 feet AGL
scattered clouds at 14000 feet AGL
broken clouds at 28000 feet AGL
Weather: no significant weather observed at this time

METAR text: WMKI 172300Z 02006KT 9000 FEW030 BKN280 26/23 Q1011
Conditions at: WMKI (IPOH , MY) observed 2300 UTC 17 August 2019
Temperature: 26.0°C (79°F)
Dewpoint: 23.0°C (73°F) [RH = 84%]
Pressure (altimeter): 29.85 inches Hg (1011.0 mb)
Winds: from the NNE (20 degrees) at 7 MPH (6 knots; 3.1 m/s)
Visibility: 6 miles ( 9 km)
Ceiling: 28000 feet AGL
Clouds: few clouds at 3000 feet AGL
broken clouds at 28000 feet AGL
Weather: no significant weather observed at this time

METAR text: WMKI 172200Z 03004KT 8000 FEW030 BKN280 26/23 Q1011
Conditions at: WMKI (IPOH , MY) observed 2200 UTC 17 August 2019
Temperature: 26.0°C (79°F)
Dewpoint: 23.0°C (73°F) [RH = 84%]
Pressure (altimeter): 29.85 inches Hg (1011.0 mb)
Winds: from the NNE (30 degrees) at 5 MPH (4 knots; 2.1 m/s)
Visibility: 5 miles ( 8 km)
Ceiling: 28000 feet AGL
Clouds: few clouds at 3000 feet AGL
broken clouds at 28000 feet AGL
Weather: no significant weather observed at this time

METAR text: WMKI 172100Z 06004KT 030V100 8000 FEW030 BKN280 27/23 Q1010
Conditions at: WMKI (IPOH , MY) observed 2100 UTC 17 August 2019
Temperature: 27.0°C (81°F)
Dewpoint: 23.0°C (73°F) [RH = 79%]
Pressure (altimeter): 29.82 inches Hg (1010.0 mb)
Winds: from the ENE (60 degrees) at 5 MPH (4 knots; 2.1 m/s)
Visibility: 5 miles ( 8 km)
Ceiling: 28000 feet AGL
Clouds: few clouds at 3000 feet AGL
broken clouds at 28000 feet AGL
Weather: no significant weather observed at this time

METAR text: WMKI 172000Z 03006KT 8000 FEW030 BKN280 27/23 Q1010
Conditions at: WMKI (IPOH , MY) observed 2000 UTC 17 August 2019
Temperature: 27.0°C (81°F)
Dewpoint: 23.0°C (73°F) [RH = 79%]
Pressure (altimeter): 29.82 inches Hg (1010.0 mb)
Winds: from the NNE (30 degrees) at 7 MPH (6 knots; 3.1 m/s)
Visibility: 5 miles ( 8 km)
Ceiling: 28000 feet AGL
Clouds: few clouds at 3000 feet AGL
broken clouds at 28000 feet AGL
Weather: no significant weather observed at this time

METAR text: WMKI 171900Z 02007KT 8000 FEW030 BKN280 27/23 Q1010
Conditions at: WMKI (IPOH , MY) observed 1900 UTC 17 August 2019
Temperature: 27.0°C (81°F)
Dewpoint: 23.0°C (73°F) [RH = 79%]
Pressure (altimeter): 29.82 inches Hg (1010.0 mb)
Winds: from the NNE (20 degrees) at 8 MPH (7 knots; 3.6 m/s)
Visibility: 5 miles ( 8 km)
Ceiling: 28000 feet AGL
Clouds: few clouds at 3000 feet AGL
broken clouds at 28000 feet AGL
Weather: no significant weather observed at this time

METAR text: WMKI 171800Z 04009KT 010V070 8000 FEW030 BKN280 28/23 Q1011
Conditions at: WMKI (IPOH , MY) observed 1800 UTC 17 August 2019
Temperature: 28.0°C (82°F)
Dewpoint: 23.0°C (73°F) [RH = 74%]
Pressure (altimeter): 29.85 inches Hg (1011.0 mb)
Winds: from the NE (40 degrees) at 10 MPH (9 knots; 4.6 m/s)
Visibility: 5 miles ( 8 km)
Ceiling: 28000 feet AGL
Clouds: few clouds at 3000 feet AGL
broken clouds at 28000 feet AGL
Weather: no significant weather observed at this time

METAR text: WMKI 171700Z 36003KT 8000 FEW030 BKN280 28/23 Q1011
Conditions at: WMKI (IPOH , MY) observed 1700 UTC 17 August 2019
Temperature: 28.0°C (82°F)
Dewpoint: 23.0°C (73°F) [RH = 74%]
Pressure (altimeter): 29.85 inches Hg (1011.0 mb)
Winds: from the N (360 degrees) at 3 MPH (3 knots; 1.5 m/s)
Visibility: 5 miles ( 8 km)
Ceiling: 28000 feet AGL
Clouds: few clouds at 3000 feet AGL
broken clouds at 28000 feet AGL
Weather: no significant weather observed at this time

METAR text: WMKI 171600Z VRB03KT 8000 FEW030 BKN280 28/25 Q1011
Conditions at: WMKI (IPOH , MY) observed 1600 UTC 17 August 2019
Temperature: 28.0°C (82°F)
Dewpoint: 25.0°C (77°F) [RH = 84%]
Pressure (altimeter): 29.85 inches Hg (1011.0 mb)
Winds: variable direction winds at 3 MPH (3 knots; 1.5 m/s)
Visibility: 5 miles ( 8 km)
Ceiling: 28000 feet AGL
Clouds: few clouds at 3000 feet AGL
broken clouds at 28000 feet AGL
Weather: no significant weather observed at this time

METAR text: WMKI 171500Z 01004KT 8000 FEW030 BKN280 29/24 Q1010
Conditions at: WMKI (IPOH , MY) observed 1500 UTC 17 August 2019
Temperature: 29.0°C (84°F)
Dewpoint: 24.0°C (75°F) [RH = 74%]
Pressure (altimeter): 29.82 inches Hg (1010.0 mb)
Winds: from the N (10 degrees) at 5 MPH (4 knots; 2.1 m/s)
Visibility: 5 miles ( 8 km)
Ceiling: 28000 feet AGL
Clouds: few clouds at 3000 feet AGL
broken clouds at 28000 feet AGL
Weather: no significant weather observed at this time

METAR text: WMKI 171400Z 00000KT 8000 FEW030 BKN280 29/25 Q1010
Conditions at: WMKI (IPOH , MY) observed 1400 UTC 17 August 2019
Temperature: 29.0°C (84°F)
Dewpoint: 25.0°C (77°F) [RH = 79%]
Pressure (altimeter): 29.82 inches Hg (1010.0 mb)
Winds: calm
Visibility: 5 miles ( 8 km)
Ceiling: 28000 feet AGL
Clouds: few clouds at 3000 feet AGL
broken clouds at 28000 feet AGL
Weather: no significant weather observed at this time

METAR text: WMKI 171300Z VRB01KT 8000 FEW030 SCT140 BKN280 30/25 Q1009
Conditions at: WMKI (IPOH , MY) observed 1300 UTC 17 August 2019
Temperature: 30.0°C (86°F)
Dewpoint: 25.0°C (77°F) [RH = 75%]
Pressure (altimeter): 29.79 inches Hg (1009.0 mb)
Winds: variable direction winds at 1 MPH (1 knots; 0.5 m/s)
Visibility: 5 miles ( 8 km)
Ceiling: 28000 feet AGL
Clouds: few clouds at 3000 feet AGL
scattered clouds at 14000 feet AGL
broken clouds at 28000 feet AGL
Weather: no significant weather observed at this time

METAR text: WMKI 171200Z 22005KT 170V250 8000 FEW030 SCT140 BKN280 31/25 Q1009
Conditions at: WMKI (IPOH , MY) observed 1200 UTC 17 August 2019
Temperature: 31.0°C (88°F)
Dewpoint: 25.0°C (77°F) [RH = 71%]
Pressure (altimeter): 29.79 inches Hg (1009.0 mb)
Winds: from the SW (220 degrees) at 6 MPH (5 knots; 2.6 m/s)
Visibility: 5 miles ( 8 km)
Ceiling: 28000 feet AGL
Clouds: few clouds at 3000 feet AGL
scattered clouds at 14000 feet AGL
broken clouds at 28000 feet AGL
Weather: no significant weather observed at this time

Forecast for: WMKI (IPOH , MY)
Text: TAF WMKI 182300Z 1900/2000 03008KT 9000 FEW020
Forecast period: 0000 to 0400 UTC 19 August 2019
Forecast type: FROM: standard forecast or significant change
Winds: from the NNE (30 degrees) at 9 MPH (8 knots; 4.1 m/s)
Visibility: 6 miles (9 km)
Ceiling: at least 12,000 feet AGL
Clouds: few clouds at 2000 feet AGL
Weather: no significant weather forecast for this period
Text: BECMG 1904/1906 25010KT SCT020
Forecast period: 0400 to 1000 UTC 19 August 2019
Forecast type: BECOMING: Conditions expected to become as follows by 0600 UTC 19 August 2019
Winds: from the WSW (250 degrees) at 12 MPH (10 knots; 5.1 m/s)
Visibility: 6 miles (9 km)
Ceiling: at least 12,000 feet AGL
Clouds: scattered clouds at 2000 feet AGL
Weather: no significant weather forecast for this period
Text: TEMPO 1908/1912 5000 TSRA FEW017CB
Forecast period: 0800 to 1200 UTC 19 August 2019
Forecast type: TEMPORARY: The following changes expected for less than half the time period
Visibility: 3 miles (5 km)
Ceiling: at least 12,000 feet AGL
Clouds: few clouds at 1700 feet AGL
Weather: TSRA  (rain associated with thunderstorm(s))
Text: BECMG 1910/1912 05005KT 7000 FEW030
Forecast period: 1000 UTC 19 August 2019 to 0000 UTC 20 August 2019
Forecast type: BECOMING: Conditions expected to become as follows by 1200 UTC 19 August 2019
Winds: from the NE (50 degrees) at 6 MPH (5 knots; 2.6 m/s)
Visibility: 4 miles (7 km)
Ceiling: at least 12,000 feet AGL
Clouds: few clouds at 3000 feet AGL
Weather: no significant weather forecast for this period